Four Corners Regional Airport Farmington US
ICAO: KFMN
IATA: FMN
Category: Medium
Scheduled Services: No

Elevation: 5506 ft
TransAlt. 18000 ft.

Airport Communications:
ATIS:127.15
DENVER CNTR:118.575
CTAF:118.9
GND:121.7
ALBUQUERQUE RDO:122.4
FARMINGTON TWR:118.9
UNICOM:122.95

KFMN Zoom In..

Runways:

(A) RW 05 length 6500 ft width 150 ft
---- / hdg 53

(B) RW 07 length 6704 ft width 100 ft
---- / hdg 76

(C) RW 23 length 6500 ft width 150 ft
---- / hdg 233

(D) RW 25 length 6704 ft width 100 ft
ILS 111.90 / hdg 256

Location; KFMN
Day. 21 / Time. 23.53 Zulu
* Altimeter: 29.97
* Temperature: 00° c. 32°f.
* Wind from: 290° Speed 23 kn with Gusts up to 29 kn.
Dewpoint: -09° c.
Visibility: 10 Statute Miles.
Clouds: Clear (automated report).

KFMN 212353Z 29023G29KT 10SM CLR 00/M09 A2997 RMK AO2 PK WND 28036/2304 SLP171 T00001094 10017 21017 53026


Wind From 290°
Speed 23 kn.

jpsM music video
CHECK IT OUT

jpsM - It Moves..

 
jpsmedia.com for Web Design  worldairports.se 2018   terms of use